Time;durP1;ratioP1;P1;durP2;ratioP2;P2;SDS_P1;SDS_P2;PMS_P1;PMS_P2;Temp;Humidity;BMP_temperature;BMP_pressure;BME280_temperature;BME280_humidity;BME280_pressure;Samples;Min_cycle;Max_cycle;Signal;HPM_P1;HPM_P2
2021/03/17 00:01:36;;;;;;;44.35;19.80;;;;;;;5.45;80.51;95417.91;5042908;28;20148;-66
2021/03/17 00:04:20;;;;;;;27.13;11.80;;;;;;;4.76;81.31;95376.75;5044083;28;20075;-66
2021/03/17 00:07:04;;;;;;;21.42;10.02;;;;;;;4.59;80.71;95332.28;5043136;28;20442;-66
2021/03/17 00:09:48;;;;;;;20.75;9.88;;;;;;;5.37;80.92;95416.25;5043220;28;20052;-67
2021/03/17 00:12:32;;;;;;;20.50;8.90;;;;;;;5.35;81.09;95412.28;5043488;28;20068;-67
2021/03/17 00:15:19;;;;;;;25.20;13.45;;;;;;;5.45;78.61;95403.38;5042979;28;20142;-67
2021/03/17 00:18:04;;;;;;;24.08;12.13;;;;;;;5.39;79.35;95402.16;5043380;28;20090;-67
2021/03/17 00:20:49;;;;;;;16.65;9.23;;;;;;;5.25;79.76;95385.53;5041812;28;20632;-67
2021/03/17 00:23:33;;;;;;;23.33;9.07;;;;;;;4.31;80.36;95263.44;5042173;28;20110;-67
2021/03/17 00:26:17;;;;;;;26.55;8.88;;;;;;;4.94;79.77;95342.06;5043056;28;20537;-67
2021/03/17 00:29:01;;;;;;;29.00;12.68;;;;;;;5.27;81.14;95402.41;5043670;28;20079;-67
2021/03/17 00:31:46;;;;;;;24.58;9.05;;;;;;;5.24;81.18;95400.41;5041905;28;20080;-66
2021/03/17 00:34:30;;;;;;;29.65;10.82;;;;;;;5.22;79.71;95397.25;5043811;28;20048;-67
2021/03/17 00:37:14;;;;;;;20.63;8.95;;;;;;;5.35;79.39;95384.84;5041980;28;20044;-67
2021/03/17 00:39:57;;;;;;;;;;;;;;;5.37;76.93;95394.31;5043543;28;20076;-67
2021/03/17 00:42:42;;;;;;;22.33;9.30;;;;;;;5.31;77.47;95389.53;5043042;28;20365;-67
2021/03/17 00:45:27;;;;;;;27.83;11.32;;;;;;;4.41;78.23;95253.78;5042280;28;20110;-66
2021/03/17 00:48:11;;;;;;;28.65;11.63;;;;;;;4.83;79.62;95327.47;5043226;28;20052;-65
2021/03/17 00:50:55;;;;;;;32.67;14.10;;;;;;;5.25;79.58;95385.53;5042895;28;20090;-65
2021/03/17 00:53:39;;;;;;;15.57;8.90;;;;;;;5.33;79.28;95389.91;5042462;28;20043;-66
2021/03/17 00:56:23;;;;;;;18.42;9.57;;;;;;;5.37;79.44;95379.78;5043107;28;20514;-66
2021/03/17 00:59:07;;;;;;;12.15;5.90;;;;;;;5.21;81.07;95391.00;5043195;28;20048;-66
2021/03/17 01:01:51;;;;;;;11.27;4.30;;;;;;;3.96;82.83;95213.69;5041587;28;20044;-66
2021/03/17 01:04:35;;;;;;;5.70;2.70;;;;;;;4.54;83.78;95307.94;5042990;28;20113;-66
2021/03/17 01:07:19;;;;;;;3.95;2.50;;;;;;;4.49;83.89;95289.09;5043778;28;20035;-66
2021/03/17 01:10:10;;;;;;;35.45;14.55;;;;;;;4.68;83.89;95326.50;5046486;28;20194;-67
2021/03/17 01:12:54;;;;;;;32.15;13.70;;;;;;;4.92;84.08;95389.09;5045416;28;20558;-66
2021/03/17 01:15:38;;;;;;;51.10;22.02;;;;;;;4.97;84.36;95363.28;5046647;28;20125;-67
2021/03/17 01:18:23;;;;;;;19.60;9.32;;;;;;;4.90;83.77;95363.19;5047162;28;20419;-66
2021/03/17 01:21:06;;;;;;;38.00;14.65;;;;;;;4.99;83.49;95371.91;5045484;28;20545;-67
2021/03/17 01:23:51;;;;;;;15.88;7.53;;;;;;;4.90;81.61;95346.75;5045442;28;20055;-69
2021/03/17 01:26:35;;;;;;;83.00;33.42;;;;;;;5.15;80.97;95367.00;5044465;28;20043;-66
2021/03/17 01:29:19;;;;;;;34.85;14.98;;;;;;;4.76;80.29;95302.72;5046649;28;20482;-67
2021/03/17 01:32:04;;;;;;;28.63;12.43;;;;;;;5.25;80.34;95369.84;5045944;28;20625;-69
2021/03/17 01:34:48;;;;;;;23.23;10.38;;;;;;;4.88;79.46;95316.16;5046324;28;20094;-67
2021/03/17 01:37:32;;;;;;;55.47;23.70;;;;;;;5.06;81.45;95315.16;5045804;28;20455;-67
2021/03/17 01:40:16;;;;;;;42.05;17.25;;;;;;;4.79;79.09;95263.56;5044292;28;20083;-66
2021/03/17 01:43:00;;;;;;;11.60;6.25;;;;;;;5.32;80.77;95352.66;5046394;28;20087;-67
2021/03/17 01:45:46;;;;;;;15.60;7.22;;;;;;;5.30;81.00;95349.50;5044298;28;20079;-67
2021/03/17 01:48:30;;;;;;;4.40;2.70;;;;;;;5.12;80.68;95365.00;5046284;28;20154;-67
2021/03/17 01:51:14;;;;;;;7.95;3.80;;;;;;;5.12;80.60;95360.28;5045231;28;20154;-67
2021/03/17 01:53:59;;;;;;;39.25;17.48;;;;;;;4.76;80.68;95303.47;5046293;28;20056;-66
2021/03/17 01:56:43;;;;;;;10.02;4.65;;;;;;;5.08;81.14;95344.97;5044347;28;20043;-67
2021/03/17 01:59:27;;;;;;;11.38;4.35;;;;;;;5.20;79.89;95352.94;5044795;28;20079;-67
2021/03/17 02:02:13;;;;;;;8.48;4.05;;;;;;;5.02;80.96;95361.00;5045197;28;20044;-66
2021/03/17 02:04:57;;;;;;;13.98;6.47;;;;;;;5.15;80.89;95354.09;5045672;28;20043;-66
2021/03/17 02:07:41;;;;;;;52.60;22.63;;;;;;;5.25;81.49;95352.59;5045867;28;20055;-66
2021/03/17 02:10:26;;;;;;;13.45;7.18;;;;;;;5.25;79.41;95349.88;5045457;28;20559;-66
2021/03/17 02:13:28;;;;;;;12.75;7.10;;;;;;;5.33;77.74;95348.75;5045549;28;20056;-66
2021/03/17 02:16:27;;;;;;;4.80;3.03;;;;;;;5.39;77.93;95355.50;5045297;28;20067;-66
2021/03/17 02:19:32;;;;;;;20.27;7.13;;;;;;;5.15;78.25;95348.59;5044367;28;20048;-66
2021/03/17 02:22:41;;;;;;;5.25;1.40;;;;;;;5.39;75.23;95350.00;5045114;28;20048;-66
2021/03/17 02:25:34;;;;;;;15.90;5.22;;;;;;;5.31;77.17;95346.38;5044801;28;20048;-65
2021/03/17 02:28:21;;;;;;;27.65;10.88;;;;;;;5.33;77.16;95348.75;5044411;28;20478;-66
2021/03/17 02:31:54;;;;;;;13.13;5.45;;;;;;;5.35;77.59;95357.41;5045208;28;20593;-67
2021/03/17 02:34:42;;;;;;;7.80;3.60;;;;;;;5.26;76.13;95359.66;5044195;28;20481;-65
2021/03/17 02:37:28;;;;;;;9.43;5.10;;;;;;;5.27;77.71;95362.03;5043991;28;20067;-66
2021/03/17 02:40:18;;;;;;;12.55;6.15;;;;;;;5.24;76.26;95349.06;5044390;28;20060;-66
2021/03/17 02:43:13;;;;;;;32.08;13.90;;;;;;;5.22;75.42;95358.81;5044850;28;20131;-65
2021/03/17 02:46:06;;;;;;;44.78;17.58;;;;;;;5.29;75.71;95353.41;5044745;28;20039;-66
2021/03/17 02:49:09;;;;;;;11.27;5.95;;;;;;;4.84;72.55;95293.41;5044398;28;20052;-66
2021/03/17 02:51:57;;;;;;;9.10;5.45;;;;;;;4.89;71.33;95271.09;5044664;28;20067;-66
2021/03/17 02:54:44;;;;;;;7.53;3.92;;;;;;;5.54;68.80;95354.44;5045461;28;20147;-66
2021/03/17 02:57:33;;;;;;;8.40;4.03;;;;;;;4.92;69.76;95262.09;5044185;28;20474;-66
2021/03/17 03:00:18;;;;;;;7.68;4.15;;;;;;;5.49;68.81;95357.53;5063944;28;20039;-66
2021/03/17 03:03:04;;;;;;;12.90;7.20;;;;;;;5.55;68.70;95356.00;5064453;28;20098;-66
2021/03/17 03:05:50;;;;;;;7.00;4.07;;;;;;;4.91;69.18;95272.31;5064299;28;20040;-66
2021/03/17 03:08:41;;;;;;;7.82;5.03;;;;;;;5.02;68.94;95297.09;5064775;28;20075;-66
2021/03/17 03:11:26;;;;;;;9.60;5.32;;;;;;;5.22;69.27;95334.13;5064055;28;20098;-64
2021/03/17 03:14:10;;;;;;;9.02;5.43;;;;;;;5.45;69.70;95352.03;5064618;28;20039;-67
2021/03/17 03:16:59;;;;;;;13.40;7.50;;;;;;;5.34;71.13;95333.88;5063706;28;20521;-66
2021/03/17 03:19:48;;;;;;;10.20;4.95;;;;;;;5.22;70.02;95334.13;5063085;28;20679;-66
2021/03/17 03:22:34;;;;;;;43.80;17.85;;;;;;;5.44;70.25;95347.69;5063863;28;20553;-67
2021/03/17 03:25:19;;;;;;;33.15;14.77;;;;;;;5.37;69.01;95338.59;5062431;28;20526;-67
2021/03/17 03:28:11;;;;;;;11.32;5.55;;;;;;;5.44;70.04;95341.38;5064407;28;20040;-67
2021/03/17 03:30:57;;;;;;;9.88;6.38;;;;;;;5.59;68.46;95356.84;5063577;28;20086;-65
2021/03/17 03:33:42;;;;;;;8.32;5.10;;;;;;;5.10;71.56;95312.47;5077656;28;20090;-66
2021/03/17 03:36:26;;;;;;;5.68;3.30;;;;;;;5.01;73.43;95362.13;5063795;28;20137;-65
2021/03/17 03:39:12;;;;;;;6.60;3.42;;;;;;;5.24;74.17;95348.25;5077334;28;20047;-66
2021/03/17 03:41:56;;;;;;;5.20;3.40;;;;;;;5.23;74.72;95335.72;5062400;28;20101;-67
2021/03/17 03:44:40;;;;;;;8.95;4.78;;;;;;;4.86;73.80;95274.59;5062204;28;20128;-66
2021/03/17 03:47:26;;;;;;;8.52;4.82;;;;;;;5.06;73.81;95278.72;5063359;28;20063;-67
2021/03/17 03:50:14;;;;;;;9.27;4.75;;;;;;;5.37;73.74;95317.44;5063427;28;20082;-67
2021/03/17 03:53:06;;;;;;;6.28;4.50;;;;;;;5.63;73.50;95324.69;5064262;28;20494;-67
2021/03/17 03:55:56;;;;;;;6.72;4.10;;;;;;;5.73;71.11;95334.97;5062409;28;20149;-66
2021/03/17 03:58:52;;;;;;;6.90;4.78;;;;;;;5.73;69.48;95337.72;5053342;28;20118;-66
2021/03/17 04:01:48;;;;;;;14.90;5.55;;;;;;;5.72;70.06;95333.41;5043095;28;20047;-66
2021/03/17 04:04:37;;;;;;;5.15;3.45;;;;;;;4.55;76.20;95278.59;5043769;28;20035;-65
2021/03/17 04:07:23;;;;;;;6.80;3.00;;;;;;;4.41;77.51;95325.78;5043066;28;20048;-66
2021/03/17 04:10:09;;;;;;;5.55;3.00;;;;;;;4.10;78.53;95254.94;5043435;28;20122;-66
2021/03/17 04:12:55;;;;;;;4.78;3.40;;;;;;;4.94;77.39;95353.84;5043815;28;20487;-67
2021/03/17 04:15:40;;;;;;;7.78;3.92;;;;;;;5.04;78.40;95330.44;5043128;28;20470;-67
2021/03/17 04:18:31;;;;;;;14.75;9.15;;;;;;;2.20;75.57;94879.72;5043634;28;20048;-67
2021/03/17 04:21:22;;;;;;;17.55;8.80;;;;;;;5.16;75.04;95338.38;5042788;28;20043;-66
2021/03/17 04:24:07;;;;;;;12.00;6.70;;;;;;;5.00;73.41;95351.53;5043715;28;20518;-65
2021/03/17 04:26:53;;;;;;;8.43;4.47;;;;;;;4.60;76.25;95289.19;5041590;28;20055;-66
2021/03/17 04:29:40;;;;;;;6.45;4.00;;;;;;;5.09;75.93;95339.09;5043754;28;20668;-67
2021/03/17 04:32:25;;;;;;;13.52;7.63;;;;;;;4.62;75.46;95276.72;5043259;28;20063;-66
2021/03/17 04:35:11;;;;;;;12.18;8.35;;;;;;;5.17;75.69;95356.44;5043205;28;20118;-66
2021/03/17 04:37:56;;;;;;;44.95;21.60;;;;;;;4.70;73.65;95252.88;5044043;28;20040;-67
2021/03/17 04:40:42;;;;;;;82.97;34.72;;;;;;;5.35;73.01;95349.97;5042598;28;20159;-65
2021/03/17 04:43:26;;;;;;;26.35;12.98;;;;;;;5.49;72.64;95371.25;5045279;28;20048;-66
2021/03/17 04:46:11;;;;;;;31.15;13.20;;;;;;;5.06;73.93;95265.00;5046669;28;20117;-66
2021/03/17 04:48:56;;;;;;;24.98;12.27;;;;;;;5.50;72.93;95343.41;5047681;28;21286;-67
2021/03/17 04:51:41;;;;;;;16.85;9.48;;;;;;;5.66;71.80;95362.38;5046715;28;20036;-66
2021/03/17 04:54:27;;;;;;;32.40;13.40;;;;;;;5.62;72.97;95361.56;5047662;28;20121;-65
2021/03/17 04:57:14;;;;;;;47.25;22.27;;;;;;;4.78;73.74;95245.50;5047178;28;20106;-65
2021/03/17 04:59:59;;;;;;;37.15;17.27;;;;;;;5.22;74.23;95369.81;5059990;28;20523;-66
2021/03/17 05:02:52;;;;;;;43.47;22.40;;;;;;;5.41;74.95;95364.13;5045589;28;20060;-65
2021/03/17 05:05:39;;;;;;;21.42;10.05;;;;;;;5.48;73.94;95361.44;5045277;28;20113;-66
2021/03/17 05:08:25;;;;;;;4.18;2.40;;;;;;;5.33;63.51;95351.47;5046788;28;20110;-65
2021/03/17 05:11:12;;;;;;;3.15;1.92;;;;;;;5.47;63.71;95348.91;5046225;28;20409;-65
2021/03/17 05:13:57;;;;;;;3.88;2.15;;;;;;;5.15;62.90;95293.72;5045495;28;20182;-64
2021/03/17 05:16:42;;;;;;;2.70;1.70;;;;;;;5.65;61.99;95366.28;5045085;28;20039;-64
2021/03/17 05:19:27;;;;;;;5.28;3.50;;;;;;;5.68;61.16;95360.03;5047293;28;20098;-66
2021/03/17 05:22:13;;;;;;;17.10;9.38;;;;;;;5.82;62.71;95376.66;5045033;28;20526;-66
2021/03/17 05:24:57;;;;;;;11.45;6.65;;;;;;;5.32;62.13;95287.59;5045522;28;20163;-64
2021/03/17 05:27:43;;;;;;;6.80;2.97;;;;;;;5.83;59.47;95379.03;5045386;28;20129;-65
2021/03/17 05:30:28;;;;;;;4.63;1.70;;;;;;;5.97;59.16;95455.31;5046144;28;20494;-66
2021/03/17 05:33:12;;;;;;;5.97;2.10;;;;;;;4.73;56.46;95182.81;5046397;28;20047;-65
2021/03/17 05:35:56;;;;;;;7.53;3.20;;;;;;;5.83;57.41;95334.31;5044572;28;20118;-66
2021/03/17 05:38:40;;;;;;;4.90;2.83;;;;;;;5.94;58.61;95340.66;5046691;28;20525;-65
2021/03/17 05:41:25;;;;;;;7.80;3.85;;;;;;;6.14;57.69;95366.72;5045783;28;20136;-66
2021/03/17 05:44:10;;;;;;;15.25;5.70;;;;;;;5.75;59.19;95310.66;5045135;28;20292;-65
2021/03/17 05:46:56;;;;;;;7.97;4.55;;;;;;;5.98;58.95;95335.97;5045456;28;20587;-66
2021/03/17 05:49:41;;;;;;;6.38;3.92;;;;;;;6.36;59.48;95401.41;5044535;28;20110;-65
2021/03/17 05:52:26;;;;;;;9.90;6.40;;;;;;;6.43;61.54;95362.97;5043958;28;20079;-66
2021/03/17 05:55:12;;;;;;;30.85;16.02;;;;;;;6.56;58.63;95372.44;5043800;28;20075;-65
2021/03/17 05:58:00;;;;;;;27.65;13.30;;;;;;;6.67;59.62;95395.28;5045372;28;20616;-67
2021/03/17 06:00:44;;;;;;;30.10;13.32;;;;;;;6.68;61.17;95399.66;5044363;28;20330;-66
2021/03/17 06:03:31;;;;;;;36.28;17.88;;;;;;;6.80;61.70;95410.31;5045713;28;20571;-65
2021/03/17 06:06:16;;;;;;;31.90;17.85;;;;;;;6.47;61.81;95380.25;5045893;28;20450;-67
2021/03/17 06:09:02;;;;;;;35.70;18.58;;;;;;;6.63;61.86;95405.50;5045026;28;20101;-66
2021/03/17 06:11:49;;;;;;;27.02;12.20;;;;;;;6.13;60.78;95348.66;5045371;28;20075;-66
2021/03/17 06:14:35;;;;;;;25.92;12.20;;;;;;;6.70;60.52;95422.03;5044705;28;20040;-66
2021/03/17 06:17:23;;;;;;;29.02;12.60;;;;;;;6.58;60.87;95399.56;5045115;28;20039;-66
2021/03/17 06:20:07;;;;;;;28.92;13.45;;;;;;;6.77;62.84;95416.59;5043857;28;20052;-65
2021/03/17 06:22:52;;;;;;;52.90;20.48;;;;;;;6.72;63.70;95392.19;5045376;28;20179;-65
2021/03/17 06:25:37;;;;;;;75.50;40.83;;;;;;;6.89;63.25;95413.47;5045440;28;20087;-60
2021/03/17 06:28:21;;;;;;;58.22;30.10;;;;;;;6.92;61.92;95407.25;5045463;28;20098;-67
2021/03/17 06:31:06;;;;;;;50.08;26.30;;;;;;;6.94;61.94;95398.59;5043194;28;20569;-65
2021/03/17 06:33:56;;;;;;;26.15;11.73;;;;;;;7.02;58.06;95439.50;5045091;28;20086;-65
2021/03/17 06:36:52;;;;;;;41.88;21.80;;;;;;;7.05;60.83;95410.44;5044467;28;20148;-65
2021/03/17 06:39:36;;;;;;;33.20;18.55;;;;;;;7.20;58.74;95417.56;5044817;28;20664;-66
2021/03/17 06:42:37;;;;;;;22.75;12.30;;;;;;;7.12;58.85;95410.44;5044155;28;20565;-66
2021/03/17 06:45:39;;;;;;;18.38;11.90;;;;;;;6.87;58.44;95377.34;5044558;28;20411;-65
2021/03/17 06:48:29;;;;;;;23.05;12.63;;;;;;;7.06;58.66;95423.81;5043764;28;20102;-67
2021/03/17 06:51:14;;;;;;;21.17;10.70;;;;;;;7.14;56.54;95419.91;5043273;28;20075;-66
2021/03/17 06:54:01;;;;;;;20.35;8.60;;;;;;;7.12;56.87;95427.75;5045501;28;20052;-66
2021/03/17 06:56:46;;;;;;;10.07;6.13;;;;;;;7.20;56.12;95421.09;5043090;28;20044;-67
2021/03/17 06:59:30;;;;;;;13.02;6.57;;;;;;;7.25;56.29;95445.53;5057202;28;20043;-66
2021/03/17 07:02:18;;;;;;;15.43;6.93;;;;;;;7.28;56.28;95441.97;5063215;28;20042;-66
2021/03/17 07:05:02;;;;;;;12.15;6.82;;;;;;;6.87;56.18;95393.84;5063948;28;20521;-66
2021/03/17 07:07:50;;;;;;;109.95;36.38;;;;;;;7.17;57.68;95419.13;5054689;28;20039;-64
2021/03/17 07:10:44;;;;;;;80.88;29.77;;;;;;;7.38;58.40;95435.69;5056183;28;20055;-69
2021/03/17 07:13:30;;;;;;;50.00;22.25;;;;;;;7.15;58.14;95409.66;5053485;28;20101;-71
2021/03/17 07:16:31;;;;;;;42.63;22.13;;;;;;;7.45;58.92;95441.25;5062514;28;20115;-68
2021/03/17 07:19:36;;;;;;;25.67;14.35;;;;;;;7.36;57.64;95451.84;5063612;28;20055;-72
2021/03/17 07:22:20;;;;;;;18.52;9.52;;;;;;;7.25;59.15;95448.28;5042557;28;20039;-70
2021/03/17 07:25:05;;;;;;;22.00;12.13;;;;;;;7.35;59.69;95458.50;5045355;28;20202;-68
2021/03/17 07:27:56;;;;;;;21.65;11.85;;;;;;;5.50;59.63;95166.94;5045686;28;20047;-63
2021/03/17 07:30:41;;;;;;;31.92;15.93;;;;;;;6.82;59.35;95368.66;5062355;28;20120;-64
2021/03/17 07:33:24;;;;;;;44.97;21.75;;;;;;;7.44;60.88;95458.97;5056053;28;20158;-67
2021/03/17 07:36:10;;;;;;;22.63;7.65;;;;;;;6.06;59.68;95304.63;5043930;28;20040;-74
2021/03/17 07:38:57;;;;;;;11.70;6.15;;;;;;;6.60;63.07;95479.75;5043094;28;20111;-70
2021/03/17 07:41:42;;;;;;;6.47;3.25;;;;;;;5.85;62.76;95466.56;5043826;28;20107;-65
2021/03/17 07:44:27;;;;;;;7.00;3.65;;;;;;;5.86;63.64;95427.72;5042536;28;20080;-66
2021/03/17 07:47:13;;;;;;;30.27;12.45;;;;;;;6.41;63.99;95467.06;5055739;28;20045;-68
2021/03/17 07:49:58;;;;;;;73.60;30.77;;;;;;;4.02;64.52;95047.88;5043561;28;20056;-69
2021/03/17 07:52:43;;;;;;;58.95;26.20;;;;;;;3.97;63.34;95020.81;5059170;28;20048;-67
2021/03/17 07:55:31;;;;;;;22.83;9.68;;;;;;;6.16;64.60;95420.13;5060318;28;20079;-67
2021/03/17 07:58:16;;;;;;;7.93;3.97;;;;;;;6.98;61.51;95471.75;5064150;28;20434;-64
2021/03/17 08:01:01;;;;;;;10.25;5.35;;;;;;;6.94;59.30;95457.16;5054626;28;20075;-69
2021/03/17 08:03:47;;;;;;;9.45;4.40;;;;;;;7.19;58.66;95469.06;5061599;28;20050;-71
2021/03/17 08:06:31;;;;;;;20.95;9.30;;;;;;;7.43;58.12;95471.13;5043354;28;20584;-66
2021/03/17 08:09:16;;;;;;;15.15;6.28;;;;;;;7.36;56.22;95475.84;5045830;28;20528;-70
2021/03/17 08:12:07;;;;;;;5.63;3.55;;;;;;;7.31;56.42;95478.97;5041709;28;20072;-62
2021/03/17 08:14:52;;;;;;;10.20;4.30;;;;;;;6.89;55.53;95385.97;5053800;28;20146;-68
2021/03/17 08:17:37;;;;;;;5.18;3.22;;;;;;;7.56;54.72;95485.34;5059158;28;20048;-67
2021/03/17 08:20:23;;;;;;;5.15;3.03;;;;;;;7.50;55.04;95482.19;5062136;28;20153;-68
2021/03/17 08:23:07;;;;;;;6.07;2.78;;;;;;;7.01;56.41;95448.16;5060382;28;20486;-65
2021/03/17 08:25:52;;;;;;;3.17;2.05;;;;;;;6.77;55.84;95411.06;5045609;28;20044;-68
2021/03/17 08:28:48;;;;;;;2.95;2.08;;;;;;;6.74;55.20;95367.84;5043773;28;20085;-69
2021/03/17 08:31:35;;;;;;;16.58;6.78;;;;;;;7.63;53.54;95486.16;5055278;28;20039;-70
2021/03/17 08:34:19;;;;;;;2.80;2.15;;;;;;;7.64;54.22;95497.97;5049380;28;20514;-69
2021/03/17 08:37:11;;;;;;;4.43;1.90;;;;;;;7.66;54.25;95493.66;5062366;28;20109;-69
2021/03/17 08:39:55;;;;;;;3.30;2.17;;;;;;;7.77;54.55;95490.13;5051449;28;20191;-67
2021/03/17 08:42:39;;;;;;;4.25;2.25;;;;;;;7.88;53.95;95486.22;5054620;28;20048;-66
2021/03/17 08:45:23;;;;;;;4.63;2.88;;;;;;;7.67;55.34;95486.97;5043106;28;20108;-65
2021/03/17 08:48:07;;;;;;;8.05;4.60;;;;;;;7.79;55.81;95476.75;5041988;28;20160;-73
2021/03/17 08:50:52;;;;;;;6.05;2.90;;;;;;;7.72;53.84;95497.59;5045417;28;20573;-74
2021/03/17 08:53:39;;;;;;;9.52;5.18;;;;;;;8.04;54.90;95496.88;5061508;28;20469;-72
2021/03/17 08:56:47;;;;;;;4.28;3.03;;;;;;;8.09;53.91;95493.75;5045720;28;20086;-71
2021/03/17 09:00:00;;;;;;;10.18;5.25;;;;;;;7.90;57.85;95494.09;5059889;28;20051;-69
2021/03/17 09:02:44;;;;;;;33.80;14.90;;;;;;;7.98;59.38;95484.66;5046395;28;20605;-70
2021/03/17 09:05:29;;;;;;;;;;;;;;;7.82;59.36;95496.06;5047491;28;20635;-68
2021/03/17 09:08:13;;;;;;;19.42;9.48;;;;;;;7.82;60.07;95514.56;5063780;28;19922;-67
2021/03/17 09:10:57;;;;;;;15.48;8.05;;;;;;;7.80;60.12;95497.63;5059476;28;20741;-73
2021/03/17 09:13:48;;;;;;;10.50;5.68;;;;;;;7.38;60.62;95452.22;5044051;28;20043;-67
2021/03/17 09:16:35;;;;;;;15.02;8.18;;;;;;;7.73;61.12;95501.94;5059902;28;20052;-69
2021/03/17 09:19:19;;;;;;;22.83;12.85;;;;;;;7.78;61.90;95498.00;5042994;28;20052;-70
2021/03/17 09:22:35;;;;;;;18.42;9.30;;;;;;;7.85;63.12;95502.75;5051105;28;20063;-69
2021/03/17 09:25:22;;;;;;;17.83;9.57;;;;;;;6.85;62.93;95374.16;5043480;28;20107;-69
2021/03/17 09:28:09;;;;;;;14.02;8.77;;;;;;;7.64;63.25;95509.78;5042912;28;20174;-68
2021/03/17 09:31:05;;;;;;;15.05;9.07;;;;;;;7.37;62.81;95489.22;5046152;28;20491;-67
2021/03/17 09:33:49;;;;;;;14.82;8.15;;;;;;;7.58;61.11;95489.31;5059265;28;20529;-69
2021/03/17 09:36:34;;;;;;;34.85;16.65;;;;;;;7.28;60.68;95441.97;5045749;28;20044;-70
2021/03/17 09:39:18;;;;;;;58.25;22.75;;;;;;;6.35;60.79;95311.88;5045090;28;20044;-70
2021/03/17 09:42:02;;;;;;;41.60;19.23;;;;;;;7.44;61.66;95463.66;5046689;28;20071;-72
2021/03/17 09:44:55;;;;;;;11.18;6.15;;;;;;;7.96;58.15;95517.34;5065313;28;20687;-65
2021/03/17 09:47:39;;;;;;;7.68;5.57;;;;;;;6.22;57.36;95252.88;5058740;28;20059;-67
2021/03/17 09:50:25;;;;;;;23.15;10.68;;;;;;;8.08;57.84;95528.03;5049350;28;20547;-66
2021/03/17 09:53:16;;;;;;;9.18;5.63;;;;;;;8.03;57.30;95522.88;5074328;28;20509;-66
2021/03/17 09:56:00;;;;;;;27.38;13.65;;;;;;;8.02;56.86;95511.06;5056238;28;20048;-68
2021/03/17 09:58:44;;;;;;;32.45;13.32;;;;;;;7.59;58.42;95479.84;5053712;28;20048;-67
2021/03/17 10:01:28;;;;;;;59.28;26.02;;;;;;;7.91;60.62;95534.25;5052789;28;20083;-67
2021/03/17 10:04:18;;;;;;;15.55;8.55;;;;;;;7.60;61.16;95544.78;5054612;28;20119;-65
2021/03/17 10:07:05;;;;;;;29.00;13.82;;;;;;;7.98;61.18;95539.81;5058280;28;20164;-66
2021/03/17 10:09:51;;;;;;;28.33;12.52;;;;;;;6.77;60.87;95347.00;5046672;28;20504;-67
2021/03/17 10:12:35;;;;;;;27.67;11.82;;;;;;;7.92;61.59;95509.06;5047300;28;20063;-67
2021/03/17 10:15:23;;;;;;;11.70;5.60;;;;;;;8.32;61.50;95538.31;5050400;28;20034;-70
2021/03/17 10:18:14;;;;;;;6.72;4.07;;;;;;;8.43;59.07;95555.66;5054259;28;20119;-70
2021/03/17 10:20:59;;;;;;;10.48;5.60;;;;;;;8.30;57.03;95569.06;5054784;28;20117;-70
2021/03/17 10:23:49;;;;;;;13.85;7.72;;;;;;;6.01;59.38;95274.75;5045889;28;20148;-70
2021/03/17 10:26:36;;;;;;;128.88;45.05;;;;;;;7.62;60.89;95549.91;5043522;28;20036;-73
2021/03/17 10:29:20;;;;;;;8.80;4.03;;;;;;;7.83;57.18;95560.22;5049552;28;20086;-68
2021/03/17 10:32:06;;;;;;;3.03;2.10;;;;;;;7.61;54.69;95560.16;5056254;28;20260;-68
2021/03/17 10:34:52;;;;;;;1.88;1.63;;;;;;;7.33;55.78;95504.94;5045924;28;20107;-71
2021/03/17 10:37:36;;;;;;;3.45;1.73;;;;;;;7.74;54.66;95569.63;5048826;28;20044;-72
2021/03/17 10:40:24;;;;;;;5.38;2.55;;;;;;;6.76;52.64;95447.22;5046660;28;20052;-66
2021/03/17 10:43:14;;;;;;;6.40;3.17;;;;;;;5.61;53.14;95338.03;5044221;28;20075;-72
2021/03/17 10:46:03;;;;;;;4.38;2.28;;;;;;;7.33;54.52;95571.03;5072326;28;20580;-72
2021/03/17 10:48:47;;;;;;;4.97;2.45;;;;;;;7.22;54.13;95564.66;5052261;28;20514;-73
2021/03/17 10:51:31;;;;;;;7.10;3.22;;;;;;;7.16;53.48;95571.72;5060228;28;20599;-72
2021/03/17 10:54:15;;;;;;;3.17;2.22;;;;;;;5.85;54.32;95359.41;5063117;28;20050;-70
2021/03/17 10:57:00;;;;;;;8.02;3.45;;;;;;;6.04;53.67;95422.38;5060043;28;20090;-71
2021/03/17 10:59:44;;;;;;;6.63;3.03;;;;;;;7.00;54.93;95568.47;5058493;28;20163;-67
2021/03/17 11:02:31;;;;;;;4.45;2.92;;;;;;;6.71;54.74;95541.94;5053347;28;20048;-66
2021/03/17 11:05:24;;;;;;;6.82;5.93;;;;;;;7.09;54.06;95566.19;5044059;28;20428;-67
2021/03/17 11:08:10;;;;;;;5.93;3.47;;;;;;;6.71;53.72;95528.19;5042071;28;20039;-67
2021/03/17 11:10:56;;;;;;;6.10;2.45;;;;;;;6.92;53.57;95586.13;5041977;28;20052;-67
2021/03/17 11:13:42;;;;;;;4.78;2.40;;;;;;;6.82;53.25;95577.78;5041587;28;20186;-67
2021/03/17 11:16:27;;;;;;;2.55;1.48;;;;;;;6.78;54.30;95576.97;5042798;28;20093;-67
2021/03/17 11:19:12;;;;;;;2.55;1.60;;;;;;;6.42;53.97;95520.09;5043182;28;20047;-69
2021/03/17 11:21:56;;;;;;;5.22;2.50;;;;;;;6.42;54.74;95487.88;5044214;28;20604;-69
2021/03/17 11:24:41;;;;;;;7.97;3.03;;;;;;;6.99;54.86;95583.41;5063491;28;20170;-69
2021/03/17 11:27:28;;;;;;;8.75;4.38;;;;;;;7.01;55.99;95572.81;5062465;28;20071;-68
2021/03/17 11:30:12;;;;;;;3.60;2.88;;;;;;;6.26;55.65;95439.84;5048263;28;20043;-63
2021/03/17 11:32:56;;;;;;;4.25;2.42;;;;;;;5.74;54.85;95331.06;5044142;28;20071;-67
2021/03/17 11:35:44;;;;;;;5.43;3.10;;;;;;;7.18;54.34;95552.84;5055552;28;20149;-68
2021/03/17 11:38:28;;;;;;;12.07;6.72;;;;;;;7.26;54.09;95559.97;5047463;28;20036;-69
2021/03/17 11:41:13;;;;;;;27.52;15.13;;;;;;;7.47;53.63;95576.63;5052978;28;20454;-68
2021/03/17 11:43:57;;;;;;;70.18;29.20;;;;;;;5.37;53.80;95246.06;5043387;28;20127;-69
2021/03/17 11:46:42;;;;;;;56.80;28.05;;;;;;;7.76;53.15;95620.84;5043452;28;20117;-67
2021/03/17 11:49:26;;;;;;;45.10;20.15;;;;;;;7.78;53.10;95582.66;5062950;28;20113;-68
2021/03/17 11:52:10;;;;;;;27.05;13.38;;;;;;;7.94;53.57;95583.09;5056135;28;20590;-71
2021/03/17 11:54:54;;;;;;;30.25;12.40;;;;;;;7.99;52.40;95561.47;5043535;28;20115;-72
2021/03/17 11:57:38;;;;;;;20.38;8.85;;;;;;;8.30;52.32;95582.06;5062438;28;20067;-71
2021/03/17 12:00:23;;;;;;;12.27;6.80;;;;;;;7.15;51.16;95415.16;5051082;28;20304;-69
2021/03/17 12:03:07;;;;;;;16.17;8.70;;;;;;;8.50;51.80;95583.28;5046055;28;20039;-71
2021/03/17 12:05:52;;;;;;;17.17;10.68;;;;;;;7.24;51.57;95408.13;5044060;28;20136;-69
2021/03/17 12:08:36;;;;;;;6.38;3.97;;;;;;;8.48;50.97;95580.13;5055343;28;20042;-69
2021/03/17 12:11:22;;;;;;;14.85;7.10;;;;;;;8.17;51.73;95542.22;5043335;28;20573;-71
2021/03/17 12:14:07;;;;;;;13.93;7.47;;;;;;;8.55;50.51;95585.66;5042269;28;20048;-70
2021/03/17 12:16:51;;;;;;;11.73;6.15;;;;;;;8.56;50.42;95581.72;5043222;28;20040;-66
2021/03/17 12:19:35;;;;;;;5.57;3.65;;;;;;;8.50;50.96;95589.59;5048341;28;20095;-68
2021/03/17 12:22:19;;;;;;;7.55;6.85;;;;;;;8.63;50.05;95584.47;5041894;28;20047;-65
2021/03/17 12:25:04;;;;;;;6.75;3.17;;;;;;;8.40;50.02;95556.47;5048667;28;20102;-64
2021/03/17 12:27:49;;;;;;;12.40;6.78;;;;;;;8.12;50.97;95506.75;5038641;28;20119;-65
2021/03/17 12:30:33;;;;;;;12.75;6.03;;;;;;;8.30;50.62;95560.78;5046159;28;20462;-67
2021/03/17 12:33:17;;;;;;;16.38;6.88;;;;;;;8.18;51.64;95543.78;5041541;28;20079;-69
2021/03/17 12:36:03;;;;;;;7.90;4.70;;;;;;;6.12;49.77;95226.13;5040125;28;20064;-67
2021/03/17 12:38:47;;;;;;;4.32;2.70;;;;;;;8.44;49.12;95602.19;5043204;28;20127;-69
2021/03/17 12:41:31;;;;;;;4.65;2.72;;;;;;;8.36;50.03;95600.59;5051592;28;20426;-70
2021/03/17 12:44:16;;;;;;;6.95;4.18;;;;;;;8.39;50.81;95604.53;5062212;28;20048;-70
2021/03/17 12:47:01;;;;;;;17.73;8.95;;;;;;;8.37;50.78;95620.69;5062978;28;20070;-68
2021/03/17 12:49:45;;;;;;;17.33;8.30;;;;;;;8.39;51.30;95610.06;5063353;28;20035;-68
2021/03/17 12:52:29;;;;;;;3.85;2.88;;;;;;;8.26;48.75;95612.41;5062439;28;20509;-71
2021/03/17 12:55:13;;;;;;;25.77;12.23;;;;;;;8.16;50.38;95623.34;5063133;28;20415;-72
2021/03/17 12:57:58;;;;;;;7.35;3.97;;;;;;;7.36;49.50;95522.66;5063269;28;20110;-67
2021/03/17 13:00:42;;;;;;;2.40;1.60;;;;;;;7.68;49.46;95626.31;5061299;28;20097;-69
2021/03/17 13:03:26;;;;;;;14.57;3.05;;;;;;;7.45;50.31;95623.03;5064885;28;20059;-69
2021/03/17 13:06:10;;;;;;;18.90;6.68;;;;;;;6.97;51.38;95552.72;5061778;28;20128;-67